KPOC/POC METAR and TAF weather

Enter ICAO airport designator
Station Type Date Time Source
KPOC METAR 2021/03/08 00:47 UTC NOAA

KPOC 080047Z 26010KT 10SM CLR 15/08 A3003


Station Type Date Time Source
KPOC Decoded METAR 2021/03/08 00:47 UTC NOAA

La Verne / Brackett, CA, United States (KPOC) 34-06N 117-47W
Mar 07, 2021 - 07:47 PM EST / 2021.03.08 0047 UTC
Wind: from the W (260 degrees) at 12 MPH (10 KT):0
Visibility: 10 mile(s):0
Sky conditions: clear
Temperature: 59 F (15 C)
Dew Point: 46 F (8 C)
Relative Humidity: 62%
Pressure (altimeter): 30.03 in. Hg (1016 hPa)
ob: KPOC 080047Z 26010KT 10SM CLR 15/08 A3003
cycle: 1

Station Type Date Time Source
KPOC TAF UTC NOAA

Error!

Example: see airport list